createdAt,value
2023-05-17T00:02:19.301Z,87.41
2023-05-17T00:05:21.429Z,85.97
2023-05-17T00:08:23.487Z,87.29
2023-05-17T00:11:25.508Z,86.21
2023-05-17T00:14:27.647Z,85.95
2023-05-17T00:17:30.066Z,86.33
2023-05-17T00:20:32.217Z,86.59
2023-05-17T00:23:34.294Z,84.96
2023-05-17T00:26:37.546Z,85.86
2023-05-17T00:29:39.647Z,85.33
2023-05-17T00:32:41.871Z,86.22
2023-05-17T00:35:44.020Z,85.74
2023-05-17T00:38:46.878Z,85.94
2023-05-17T00:41:49.170Z,86.44
2023-05-17T00:44:51.509Z,86.94
2023-05-17T00:47:53.697Z,86.96
2023-05-17T00:50:56.574Z,86.48
2023-05-17T00:53:59.081Z,87.44
2023-05-17T00:57:01.563Z,86.98
2023-05-17T01:00:05.686Z,86.81
2023-05-17T01:03:08.222Z,86.02
2023-05-17T01:06:10.585Z,85.64
2023-05-17T01:09:12.826Z,86.12
2023-05-17T01:12:33.285Z,85.73
2023-05-17T01:15:41.798Z,85.69
2023-05-17T01:18:46.658Z,84.57
2023-05-17T01:22:16.074Z,85.36
2023-05-17T01:25:26.772Z,85.98
2023-05-17T01:28:32.126Z,85.86
2023-05-17T01:31:37.205Z,86.28
2023-05-17T01:34:39.395Z,86.10
2023-05-17T01:37:41.562Z,86.99
2023-05-17T01:41:01.755Z,86.66
2023-05-17T01:44:20.160Z,86.23
2023-05-17T01:47:41.692Z,86.45
2023-05-17T01:50:49.080Z,86.99
2023-05-17T01:54:13.400Z,86.18
2023-05-17T01:57:16.793Z,85.45
2023-05-17T02:00:20.035Z,86.21
2023-05-17T02:03:22.471Z,85.41
2023-05-17T02:06:28.054Z,85.45
2023-05-17T02:09:31.065Z,85.81
2023-05-17T02:12:33.562Z,85.71
2023-05-17T02:15:36.508Z,86.10
2023-05-17T02:18:40.673Z,85.88
2023-05-17T02:21:42.841Z,85.26
2023-05-17T02:24:44.987Z,85.59
2023-05-17T02:27:47.307Z,85.99
2023-05-17T02:30:49.399Z,86.31
2023-05-17T02:33:51.527Z,86.51
2023-05-17T02:36:53.713Z,85.85
2023-05-17T02:39:55.846Z,86.32
2023-05-17T02:42:57.954Z,85.33
2023-05-17T02:46:00.113Z,85.35
2023-05-17T02:49:02.294Z,85.39
2023-05-17T02:52:05.402Z,85.89
2023-05-17T02:55:07.853Z,85.54
2023-05-17T02:58:09.932Z,84.80
2023-05-17T03:01:12.036Z,85.05
2023-05-17T03:04:14.193Z,84.25
2023-05-17T03:07:16.391Z,84.67
2023-05-17T03:10:18.863Z,85.43
2023-05-17T03:13:21.784Z,85.53
2023-05-17T03:16:23.877Z,84.81
2023-05-17T03:19:27.836Z,85.55
2023-05-17T03:22:30.130Z,85.86
2023-05-17T03:25:34.237Z,85.46
2023-05-17T03:28:37.130Z,84.83
2023-05-17T03:31:40.390Z,84.58
2023-05-17T03:34:42.477Z,85.54
2023-05-17T03:37:44.563Z,84.25
2023-05-17T03:40:47.142Z,84.99
2023-05-17T03:43:49.397Z,84.25
2023-05-17T03:46:52.130Z,84.99
2023-05-17T03:49:55.035Z,85.14
2023-05-17T03:52:57.268Z,84.11
2023-05-17T03:55:59.522Z,84.73
2023-05-17T03:59:18.210Z,83.92
2023-05-17T04:05:41.698Z,84.94
2023-05-17T04:08:44.531Z,84.38
2023-05-17T04:11:46.837Z,84.23
2023-05-17T04:14:48.937Z,84.58
2023-05-17T04:17:51.016Z,84.46
2023-05-17T04:20:55.459Z,84.77
2023-05-17T04:23:59.529Z,83.79
2023-05-17T04:27:05.463Z,84.34
2023-05-17T04:30:08.352Z,84.13
2023-05-17T04:33:12.715Z,84.82
2023-05-17T04:36:16.309Z,84.77
2023-05-17T04:39:18.910Z,88.34
2023-05-17T04:42:21.831Z,90.36
2023-05-17T04:45:29.208Z,93.02
2023-05-17T04:48:32.714Z,93.64
2023-05-17T04:51:35.036Z,93.26
2023-05-17T04:54:37.747Z,95.79
2023-05-17T04:57:43.028Z,99.44
2023-05-17T05:00:48.253Z,100.00
2023-05-17T05:03:50.510Z,100.00
2023-05-17T05:06:53.585Z,100.00
2023-05-17T05:09:55.593Z,100.00
2023-05-17T05:12:58.948Z,100.00
2023-05-17T05:16:01.252Z,100.00
2023-05-17T05:19:04.333Z,100.00
2023-05-17T05:22:07.054Z,100.00
2023-05-17T05:25:14.917Z,100.00
2023-05-17T05:28:17.346Z,100.00
2023-05-17T05:31:21.411Z,100.00
2023-05-17T05:34:28.742Z,100.00
2023-05-17T05:37:32.127Z,100.00
2023-05-17T05:40:37.353Z,100.00
2023-05-17T05:43:42.926Z,100.00
2023-05-17T05:46:46.492Z,100.00
2023-05-17T05:49:49.960Z,100.00
2023-05-17T05:53:03.813Z,100.00
2023-05-17T05:56:17.322Z,100.00
2023-05-17T05:59:19.623Z,97.90
2023-05-17T06:02:21.763Z,95.86
2023-05-17T06:05:23.985Z,95.24
2023-05-17T06:08:26.086Z,94.43
2023-05-17T06:11:28.183Z,93.40
2023-05-17T06:14:30.474Z,94.22
2023-05-17T06:17:32.924Z,94.80
2023-05-17T06:20:35.094Z,95.49
2023-05-17T06:23:37.161Z,94.60
2023-05-17T06:26:40.927Z,94.21
2023-05-17T06:29:42.973Z,93.97
2023-05-17T06:32:45.055Z,93.99
2023-05-17T06:35:56.049Z,93.33
2023-05-17T06:38:59.743Z,92.60
2023-05-17T06:42:01.971Z,93.54
2023-05-17T06:45:11.364Z,92.09
2023-05-17T06:48:14.037Z,92.97
2023-05-17T06:51:16.047Z,91.73
2023-05-17T06:54:19.722Z,92.00
2023-05-17T06:57:21.777Z,90.96
2023-05-17T07:00:25.884Z,89.85
2023-05-17T07:03:28.118Z,89.56
2023-05-17T07:06:31.422Z,88.93
2023-05-17T07:09:33.450Z,88.79
2023-05-17T07:12:36.620Z,88.29
2023-05-17T07:15:39.153Z,87.80
2023-05-17T07:18:41.294Z,87.34
2023-05-17T07:21:43.284Z,87.79
2023-05-17T07:24:46.450Z,87.33
2023-05-17T07:27:48.879Z,87.47
2023-05-17T07:30:51.152Z,86.55
2023-05-17T07:33:53.183Z,87.42
2023-05-17T07:36:55.333Z,87.30
2023-05-17T07:39:57.395Z,86.81
2023-05-17T07:42:59.421Z,86.84
2023-05-17T07:46:01.742Z,86.43
2023-05-17T07:49:06.596Z,86.04
2023-05-17T07:52:08.935Z,85.67
2023-05-17T07:55:11.361Z,85.67
2023-05-17T07:58:13.552Z,85.19
2023-05-17T08:01:15.948Z,85.18
2023-05-17T08:04:19.557Z,84.77
2023-05-17T08:07:21.756Z,84.62
2023-05-17T08:10:27.622Z,84.47
2023-05-17T08:13:29.932Z,84.29
2023-05-17T08:16:38.175Z,83.86
2023-05-17T08:19:41.660Z,83.82
2023-05-17T08:22:43.859Z,83.59
2023-05-17T08:25:46.488Z,83.78
2023-05-17T08:28:48.817Z,83.59
2023-05-17T08:31:51.702Z,83.52
2023-05-17T08:34:55.021Z,83.13
2023-05-17T08:37:57.376Z,83.19
2023-05-17T08:41:00.141Z,83.57
2023-05-17T08:44:04.560Z,82.88
2023-05-17T08:47:12.186Z,83.29
2023-05-17T08:50:14.455Z,83.05
2023-05-17T08:53:17.976Z,83.23
2023-05-17T08:56:21.634Z,82.96
2023-05-17T08:59:23.944Z,82.21
2023-05-17T09:02:28.538Z,82.36
2023-05-17T09:05:30.861Z,82.02
2023-05-17T09:08:33.294Z,82.08
2023-05-17T09:11:35.525Z,81.61
2023-05-17T09:14:37.661Z,81.37
2023-05-17T09:17:41.433Z,80.47
2023-05-17T09:20:51.822Z,80.58
2023-05-17T09:24:05.413Z,81.48
2023-05-17T09:27:08.502Z,83.01
2023-05-17T09:30:11.811Z,84.16
2023-05-17T09:33:16.596Z,84.25
2023-05-17T09:36:24.398Z,84.90
2023-05-17T09:39:27.224Z,84.99
2023-05-17T09:42:29.652Z,85.48
2023-05-17T09:45:36.356Z,85.12
2023-05-17T09:48:39.395Z,84.00
2023-05-17T09:51:43.828Z,83.88
2023-05-17T09:54:52.980Z,84.27
2023-05-17T09:58:03.478Z,82.01
2023-05-17T10:01:07.495Z,81.88
2023-05-17T10:04:10.799Z,81.01
2023-05-17T10:07:14.889Z,80.45
2023-05-17T10:10:18.410Z,80.66
2023-05-17T10:13:26.559Z,76.33
2023-05-17T10:16:29.641Z,78.92
2023-05-17T10:19:35.729Z,79.22
2023-05-17T10:22:39.627Z,77.42
2023-05-17T10:25:43.265Z,78.94
2023-05-17T10:28:46.603Z,78.66
2023-05-17T10:31:53.825Z,77.52
2023-05-17T10:35:09.489Z,78.08
2023-05-17T10:38:13.821Z,76.95
2023-05-17T10:41:18.372Z,77.15
2023-05-17T10:44:22.420Z,76.13
2023-05-17T10:47:33.596Z,75.46
2023-05-17T10:50:41.123Z,76.04
2023-05-17T10:54:06.177Z,76.48
2023-05-17T10:57:09.803Z,75.22
2023-05-17T11:00:20.520Z,76.12
2023-05-17T11:03:29.391Z,75.33
2023-05-17T11:06:36.605Z,74.74
2023-05-17T11:09:41.069Z,75.14
2023-05-17T11:12:48.089Z,75.05
2023-05-17T11:16:07.914Z,75.30
2023-05-17T11:19:12.350Z,75.37
2023-05-17T11:22:16.849Z,75.42
2023-05-17T11:25:19.296Z,76.54
2023-05-17T11:28:22.762Z,76.41
2023-05-17T11:31:33.099Z,75.92
2023-05-17T11:34:35.407Z,76.29
2023-05-17T11:37:37.529Z,75.33
2023-05-17T11:40:40.467Z,76.07
2023-05-17T11:43:47.466Z,76.06
2023-05-17T11:46:50.678Z,75.62
2023-05-17T11:49:57.133Z,75.64
2023-05-17T11:53:00.411Z,76.51
2023-05-17T11:56:07.175Z,76.33
2023-05-17T11:59:10.472Z,75.81
2023-05-17T12:02:34.513Z,75.54
2023-05-17T12:05:37.064Z,75.72
2023-05-17T12:08:46.034Z,75.74
2023-05-17T12:11:50.359Z,74.66
2023-05-17T12:14:53.811Z,75.22
2023-05-17T12:17:56.319Z,74.91
2023-05-17T12:21:00.356Z,74.96
2023-05-17T12:24:02.469Z,75.12
2023-05-17T12:27:04.973Z,74.42
2023-05-17T12:30:16.241Z,74.79
2023-05-17T12:33:20.347Z,75.06
2023-05-17T12:36:23.078Z,75.69
2023-05-17T12:39:26.219Z,76.10
2023-05-17T12:42:29.151Z,75.56
2023-05-17T12:45:34.290Z,76.24
2023-05-17T12:48:38.129Z,75.52
2023-05-17T12:51:47.321Z,76.07
2023-05-17T12:54:50.571Z,75.98
2023-05-17T12:57:53.937Z,75.70
2023-05-17T13:01:10.871Z,76.05
2023-05-17T13:04:14.479Z,77.49
2023-05-17T13:07:24.242Z,77.03
2023-05-17T13:10:28.466Z,77.75
2023-05-17T13:13:33.755Z,78.28
2023-05-17T13:16:39.718Z,78.40
2023-05-17T13:19:42.352Z,78.48
2023-05-17T13:22:48.288Z,77.88
2023-05-17T13:25:50.372Z,78.69
2023-05-17T13:28:52.520Z,78.33
2023-05-17T13:31:54.648Z,78.09
2023-05-17T13:34:57.142Z,78.52
2023-05-17T13:37:59.224Z,78.84
2023-05-17T13:41:01.390Z,78.61
2023-05-17T13:44:03.588Z,78.65
2023-05-17T13:47:05.997Z,79.08
2023-05-17T13:50:09.719Z,78.79
2023-05-17T13:53:12.401Z,78.55
2023-05-17T13:56:15.126Z,77.37
2023-05-17T13:59:17.192Z,77.88
2023-05-17T14:02:19.270Z,77.99
2023-05-17T14:05:21.642Z,78.33
2023-05-17T14:08:24.314Z,78.44
2023-05-17T14:11:28.342Z,78.20
2023-05-17T14:14:30.983Z,78.27
2023-05-17T14:17:33.647Z,78.14
2023-05-17T14:20:35.792Z,78.16
2023-05-17T14:23:37.952Z,78.65
2023-05-17T14:26:42.637Z,78.87
2023-05-17T14:29:44.750Z,79.19
2023-05-17T14:32:47.097Z,79.18
2023-05-17T14:35:49.344Z,79.81
2023-05-17T14:38:51.495Z,79.58
2023-05-17T14:41:53.600Z,79.05
2023-05-17T14:44:55.785Z,79.05
2023-05-17T14:47:58.058Z,78.71
2023-05-17T14:51:00.585Z,79.06
2023-05-17T14:54:03.614Z,79.41
2023-05-17T14:57:06.318Z,79.61
2023-05-17T15:00:10.689Z,79.41
2023-05-17T15:03:13.248Z,79.79
2023-05-17T15:06:15.533Z,79.94
2023-05-17T15:09:18.432Z,79.59
2023-05-17T15:12:23.130Z,78.55
2023-05-17T15:15:26.320Z,77.36
2023-05-17T15:18:28.490Z,76.59
2023-05-17T15:21:31.744Z,73.51
2023-05-17T15:24:33.892Z,72.36
2023-05-17T15:27:36.010Z,71.02
2023-05-17T15:30:41.451Z,71.14
2023-05-17T15:33:43.706Z,71.31
2023-05-17T15:36:47.619Z,71.82
2023-05-17T15:39:49.788Z,71.15
2023-05-17T15:42:54.809Z,72.68
2023-05-17T15:45:56.893Z,78.17
2023-05-17T15:48:58.991Z,83.40
2023-05-17T15:52:01.090Z,85.72
2023-05-17T15:55:03.287Z,88.34
2023-05-17T15:58:08.090Z,90.95
2023-05-17T16:01:10.928Z,91.27
2023-05-17T16:04:14.271Z,91.74
2023-05-17T16:07:16.956Z,91.35
2023-05-17T16:10:19.511Z,91.76
2023-05-17T16:13:23.313Z,91.18
2023-05-17T16:16:26.011Z,91.77
2023-05-17T16:19:30.629Z,92.70
2023-05-17T16:22:33.283Z,92.68
2023-05-17T16:25:38.712Z,93.31
2023-05-17T16:28:43.950Z,93.07
2023-05-17T16:31:48.422Z,92.45
2023-05-17T16:34:50.583Z,91.48
2023-05-17T16:37:53.270Z,91.53
2023-05-17T16:40:56.036Z,91.85
2023-05-17T16:43:58.143Z,91.07
2023-05-17T16:47:01.413Z,90.78
2023-05-17T16:50:05.344Z,90.68
2023-05-17T16:53:07.600Z,91.02
2023-05-17T16:56:09.840Z,90.70
2023-05-17T16:59:14.452Z,91.12
2023-05-17T17:02:16.819Z,91.31
2023-05-17T17:05:21.315Z,91.67
2023-05-17T17:08:24.152Z,91.04
2023-05-17T17:11:26.406Z,91.42
2023-05-17T17:14:32.212Z,90.99
2023-05-17T17:17:35.650Z,90.75
2023-05-17T17:20:38.088Z,91.69
2023-05-17T17:23:40.748Z,91.81
2023-05-17T17:26:45.068Z,91.24
2023-05-17T17:29:47.128Z,91.19
2023-05-17T17:32:49.384Z,91.48
2023-05-17T17:35:51.613Z,91.62
2023-05-17T17:38:53.784Z,91.38
2023-05-17T17:41:58.201Z,91.92
2023-05-17T17:45:00.592Z,92.46
2023-05-17T17:48:02.817Z,91.87
2023-05-17T17:51:05.293Z,92.19
2023-05-17T17:54:07.958Z,91.80
2023-05-17T17:57:10.120Z,91.94
2023-05-17T18:00:13.319Z,91.85
2023-05-17T18:03:15.663Z,92.41
2023-05-17T18:06:17.904Z,93.26
2023-05-17T18:09:23.388Z,92.90
2023-05-17T18:12:27.777Z,93.14
2023-05-17T18:15:29.977Z,92.05
2023-05-17T18:18:32.492Z,92.23
2023-05-17T18:21:34.608Z,92.12
2023-05-17T18:24:36.864Z,91.95
2023-05-17T18:27:41.451Z,91.30
2023-05-17T18:30:43.636Z,91.53
2023-05-17T18:33:45.744Z,91.75
2023-05-17T18:36:48.261Z,92.01
2023-05-17T18:39:50.445Z,91.43
2023-05-17T18:42:52.968Z,91.43
2023-05-17T18:45:55.410Z,92.35
2023-05-17T18:49:00.252Z,91.87
2023-05-17T18:52:04.419Z,90.92
2023-05-17T18:55:06.746Z,91.17
2023-05-17T18:58:08.806Z,91.41
2023-05-17T19:01:11.083Z,91.04
2023-05-17T19:04:14.575Z,91.38
2023-05-17T19:07:16.709Z,92.10
2023-05-17T19:10:20.917Z,92.28
2023-05-17T19:13:24.539Z,93.10
2023-05-17T19:16:26.773Z,92.39
2023-05-17T19:19:28.978Z,94.93
2023-05-17T19:22:32.615Z,98.27
2023-05-17T19:25:35.354Z,100.00
2023-05-17T19:28:37.732Z,100.00
2023-05-17T19:31:39.861Z,100.00
2023-05-17T19:34:48.823Z,100.00
2023-05-17T19:37:50.928Z,100.00
2023-05-17T19:40:53.459Z,100.00
2023-05-17T19:43:56.103Z,100.00
2023-05-17T19:46:58.356Z,100.00
2023-05-17T19:50:00.351Z,100.00
2023-05-17T19:53:02.773Z,100.00
2023-05-17T19:56:08.223Z,100.00
2023-05-17T19:59:10.511Z,99.65
2023-05-17T20:02:12.752Z,99.06
2023-05-17T20:05:17.182Z,99.78
2023-05-17T20:08:19.305Z,98.21
2023-05-17T20:11:22.497Z,98.24
2023-05-17T20:14:26.767Z,98.23
2023-05-17T20:17:28.885Z,98.10
2023-05-17T20:20:31.449Z,97.94
2023-05-17T20:23:33.748Z,97.30
2023-05-17T20:26:37.294Z,96.50
2023-05-17T20:29:40.735Z,97.34
2023-05-17T20:32:42.920Z,95.18
2023-05-17T20:35:45.063Z,95.39
2023-05-17T20:38:47.389Z,94.39
2023-05-17T20:41:49.902Z,93.90
2023-05-17T20:44:53.810Z,94.45
2023-05-17T20:47:56.107Z,92.73
2023-05-17T20:50:58.210Z,93.73
2023-05-17T20:54:00.188Z,93.48
2023-05-17T20:57:04.420Z,94.20
2023-05-17T21:00:08.804Z,94.04
2023-05-17T21:03:11.246Z,93.21
2023-05-17T21:06:13.656Z,94.30
2023-05-17T21:09:15.723Z,93.29
2023-05-17T21:12:17.833Z,94.12
2023-05-17T21:15:19.967Z,93.16
2023-05-17T21:18:23.525Z,93.13
2023-05-17T21:21:26.739Z,93.39
2023-05-17T21:24:28.820Z,92.38
2023-05-17T21:27:30.972Z,92.97
2023-05-17T21:30:33.314Z,92.73
2023-05-17T21:33:35.641Z,92.84
2023-05-17T21:36:37.805Z,93.58
2023-05-17T21:39:39.881Z,92.88
2023-05-17T21:42:42.222Z,92.49
2023-05-17T21:45:44.290Z,92.25
2023-05-17T21:48:46.714Z,92.61
2023-05-17T21:51:48.838Z,92.53
2023-05-17T21:54:51.019Z,93.21
2023-05-17T21:57:53.137Z,91.92
2023-05-17T22:00:55.352Z,92.82
2023-05-17T22:03:57.711Z,93.13
2023-05-17T22:06:59.937Z,92.54
2023-05-17T22:10:02.745Z,93.24
2023-05-17T22:13:06.343Z,92.23
2023-05-17T22:16:09.025Z,92.81
2023-05-17T22:19:11.472Z,92.90
2023-05-17T22:22:13.648Z,92.20
2023-05-17T22:25:17.521Z,92.33
2023-05-17T22:28:19.837Z,92.17
2023-05-17T22:31:22.721Z,92.86
2023-05-17T22:34:24.886Z,91.15
2023-05-17T22:37:26.976Z,91.76
2023-05-17T22:40:29.402Z,91.69
2023-05-17T22:43:31.563Z,92.61
2023-05-17T22:46:33.971Z,90.83
2023-05-17T22:49:36.103Z,90.89
2023-05-17T22:52:41.177Z,90.82
2023-05-17T22:55:48.810Z,91.29
2023-05-17T22:58:50.874Z,90.72
2023-05-17T23:01:53.434Z,91.39
2023-05-17T23:04:55.876Z,90.55
2023-05-17T23:07:58.060Z,90.92
2023-05-17T23:11:01.879Z,89.11
2023-05-17T23:14:04.177Z,88.67
2023-05-17T23:17:06.274Z,90.07
2023-05-17T23:20:10.485Z,89.59
2023-05-17T23:23:13.559Z,88.84
2023-05-17T23:26:17.357Z,89.19
2023-05-17T23:29:20.160Z,88.53
2023-05-17T23:32:23.302Z,89.10
2023-05-17T23:35:25.325Z,89.19
2023-05-17T23:38:27.600Z,89.56
2023-05-17T23:41:29.672Z,89.07
2023-05-17T23:44:33.501Z,89.60
2023-05-17T23:47:35.701Z,89.04
2023-05-17T23:50:38.062Z,88.92
2023-05-17T23:53:42.266Z,88.98
2023-05-17T23:56:44.344Z,89.19
2023-05-17T23:59:46.484Z,88.99
